Time;durP1;ratioP1;P1;durP2;ratioP2;P2;SDS_P1;SDS_P2;PMS_P1;PMS_P2;Temp;Humidity;BMP_temperature;BMP_pressure;BME280_temperature;BME280_humidity;BME280_pressure;Samples;Min_cycle;Max_cycle;Signal;HPM_P1;HPM_P2
2022/11/03 00:00:24;;;;;;;;;3.00;3.00;;;;;14.57;84.96;101375.34;6188496;23;49287;-78
2022/11/03 00:02:50;;;;;;;;;8.00;4.25;;;;;14.54;85.10;101382.31;6188638;23;49231;-78
2022/11/03 00:08:01;;;;;;;;;6.00;5.00;;;;;14.51;85.06;101347.94;6188455;23;49207;-77
2022/11/03 00:10:26;;;;;;;;;5.00;3.75;;;;;14.56;85.27;101357.69;6184012;23;49959;-71
2022/11/03 00:12:52;;;;;;;;;4.25;4.00;;;;;14.57;84.74;101355.94;6176924;22;58256;-75
2022/11/03 00:15:18;;;;;;;;;5.00;5.00;;;;;14.44;85.38;101332.84;6178819;23;49571;-76
2022/11/03 00:17:45;;;;;;;;;5.00;5.00;;;;;14.51;85.34;101348.84;6187658;23;53717;-81
2022/11/03 00:20:11;;;;;;;;;4.75;4.25;;;;;14.32;85.79;101329.16;6183599;23;49500;-73
2022/11/03 00:22:36;;;;;;;;;4.00;4.00;;;;;14.15;85.80;101301.63;6181472;23;49665;-89
2022/11/03 00:25:01;;;;;;;;;3.00;3.00;;;;;14.39;85.88;101331.91;6188244;22;49219;-76
2022/11/03 00:27:27;;;;;;;;;8.00;3.00;;;;;14.51;85.78;101346.19;6188482;22;49545;-72
2022/11/03 00:29:52;;;;;;;;;3.75;3.50;;;;;14.47;86.40;101344.34;6188619;23;49917;-81
2022/11/03 00:32:17;;;;;;;;;4.25;4.25;;;;;14.28;86.30;101316.78;6188915;23;49211;-74
2022/11/03 00:34:42;;;;;;;;;3.00;3.00;;;;;14.37;86.50;101333.59;6188217;23;49740;-86
2022/11/03 00:37:08;;;;;;;;;3.00;3.00;;;;;14.41;86.59;101332.81;6182260;23;59971;-79
2022/11/03 00:39:33;;;;;;;;;4.00;4.00;;;;;14.29;86.15;101313.28;6184626;23;63968;-76
2022/11/03 00:41:58;;;;;;;;;3.00;3.00;;;;;14.31;86.53;101330.03;6187836;23;61320;-80
2022/11/03 00:44:23;;;;;;;;;5.00;3.75;;;;;14.37;86.25;101326.56;6187025;22;49582;-72
2022/11/03 00:46:49;;;;;;;;;3.00;3.00;;;;;14.39;86.33;101330.16;6176568;23;51474;-75
2022/11/03 00:49:14;;;;;;;;;6.75;5.75;;;;;14.36;86.99;101316.00;6176448;22;50674;-73
2022/11/03 00:51:39;;;;;;;;;4.50;3.50;;;;;14.36;86.66;101316.88;6176385;23;49760;-71
2022/11/03 00:54:06;;;;;;;;;7.25;6.25;;;;;14.21;86.67;101296.44;6176197;23;49761;-72
2022/11/03 00:56:39;;;;;;;;;6.00;6.00;;;;;14.37;86.68;101313.34;6176619;23;49975;-77
2022/11/03 00:59:06;;;;;;;;;6.25;5.00;;;;;14.32;86.92;101296.59;6176253;23;50704;-71
2022/11/03 01:01:40;;;;;;;;;4.25;3.50;;;;;14.37;86.43;101296.63;6175547;23;49721;-73
2022/11/03 01:06:53;;;;;;;;;5.75;5.25;;;;;14.32;86.93;101289.53;6177053;23;49727;-73
2022/11/03 01:09:27;;;;;;;;;3.50;3.50;;;;;14.30;86.81;101291.28;6176279;23;50677;-70
2022/11/03 01:12:11;;;;;;;;;6.25;4.25;;;;;14.21;87.19;101279.69;6175780;23;49745;-71
2022/11/03 01:14:42;;;;;;;;;6.25;4.50;;;;;14.14;87.01;101283.13;6176751;23;49765;-72
2022/11/03 01:17:14;;;;;;;;;6.25;5.00;;;;;14.12;87.54;101272.53;6175170;23;49591;-75
2022/11/03 01:19:40;;;;;;;;;4.00;4.00;;;;;14.14;87.51;101278.72;6175847;23;50584;-71
2022/11/03 01:22:06;;;;;;;;;4.50;4.25;;;;;14.14;87.07;101270.78;6175595;23;57097;-75
2022/11/03 01:24:33;;;;;;;;;6.00;4.25;;;;;14.07;87.65;101249.56;6176303;23;49758;-71
2022/11/03 01:26:58;;;;;;;;;7.25;6.00;;;;;14.02;88.08;101244.22;6175952;23;49930;-71
2022/11/03 01:29:24;;;;;;;;;6.00;3.00;;;;;14.12;87.86;101250.53;6177677;22;50507;-72
2022/11/03 01:31:49;;;;;;;;;4.00;3.50;;;;;14.04;87.91;101240.72;6180188;23;49659;-71
2022/11/03 01:34:16;;;;;;;;;4.00;4.00;;;;;14.10;88.19;101249.63;6178181;23;49644;-71
2022/11/03 01:36:43;;;;;;;;;6.00;4.00;;;;;14.03;87.84;101232.81;6175850;23;50034;-71
2022/11/03 01:39:17;;;;;;;;;4.00;4.00;;;;;14.10;88.23;101232.03;6175860;23;50255;-71
2022/11/03 01:41:45;;;;;;;;;6.25;4.50;;;;;14.02;88.02;101218.72;6175331;23;49595;-70
2022/11/03 01:44:10;;;;;;;;;4.50;3.00;;;;;14.10;88.34;101225.88;6177945;23;49606;-73
2022/11/03 01:46:45;;;;;;;;;6.50;5.00;;;;;13.59;87.83;101148.59;6185195;23;49109;-71
2022/11/03 01:49:16;;;;;;;;;7.00;5.00;;;;;13.97;88.51;101207.19;6175138;23;50588;-70
2022/11/03 01:51:44;;;;;;;;;3.00;3.00;;;;;13.73;89.19;101173.44;6175950;23;49780;-70
2022/11/03 01:54:13;;;;;;;;;5.00;3.50;;;;;13.94;89.87;101208.91;6176416;23;49471;-70
2022/11/03 01:56:42;;;;;;;;;2.25;2.25;;;;;13.74;89.64;101169.94;6175920;23;49976;-75
2022/11/03 01:59:08;;;;;;;;;5.00;3.75;;;;;13.95;89.62;101194.84;6177462;23;50225;-81
2022/11/03 02:01:34;;;;;;;;;5.50;4.00;;;;;14.00;89.12;101193.16;6187668;23;49348;-71
2022/11/03 02:04:10;;;;;;;;;6.75;5.00;;;;;13.93;89.01;101191.31;6179725;23;49480;-70
2022/11/03 02:06:36;;;;;;;;;5.00;5.00;;;;;13.66;89.28;101126.72;6187724;23;49141;-71
2022/11/03 02:09:05;;;;;;;;;6.50;5.00;;;;;13.71;89.20;101151.44;6186946;23;50105;-70
2022/11/03 02:14:17;;;;;;;;;4.25;3.00;;;;;13.79;89.03;101163.81;6184947;23;49619;-72
2022/11/03 02:16:53;;;;;;;;;6.25;4.00;;;;;13.92;89.17;101187.78;6186256;23;49620;-70
2022/11/03 02:19:43;;;;;;;;;4.75;3.75;;;;;13.92;89.04;101168.41;6182122;23;51462;-70
2022/11/03 02:22:41;;;;;;;;;6.25;5.25;;;;;13.91;89.28;101166.66;6175195;23;49670;-70
2022/11/03 02:25:28;;;;;;;;;5.00;4.75;;;;;13.90;89.07;101164.88;6179819;23;49598;-71
2022/11/03 02:27:53;;;;;;;;;4.75;4.75;;;;;13.88;88.83;101162.19;6186856;23;49330;-71
2022/11/03 02:30:19;;;;;;;;;4.75;3.25;;;;;13.76;88.73;101130.38;6188378;22;49426;-70
2022/11/03 02:33:04;;;;;;;;;4.00;4.00;;;;;13.74;89.11;101125.06;6180555;22;49654;-71
2022/11/03 02:35:43;;;;;;;;;5.25;3.50;;;;;13.71;88.56;101103.94;6181218;23;49827;-71
2022/11/03 02:38:13;;;;;;;;;7.00;4.00;;;;;13.81;89.08;101123.41;6187718;23;49633;-70
2022/11/03 02:40:44;;;;;;;;;9.50;7.25;;;;;13.83;89.17;101124.31;6186618;23;50550;-70
2022/11/03 02:43:13;;;;;;;;;6.50;5.25;;;;;13.79;89.45;101111.94;6186916;23;49779;-72
2022/11/03 02:45:38;;;;;;;;;5.50;5.50;;;;;13.84;89.08;101122.56;6188271;22;49256;-71
2022/11/03 02:48:05;;;;;;;;;7.25;3.50;;;;;13.89;89.20;101121.72;6188721;22;49580;-74
2022/11/03 02:50:33;;;;;;;;;5.25;3.75;;;;;13.89;89.09;101116.47;6178583;23;49822;-71
2022/11/03 02:52:59;;;;;;;;;6.50;5.25;;;;;13.85;88.77;101103.22;6176946;23;50149;-70
2022/11/03 02:55:39;;;;;;;;;4.75;4.75;;;;;13.81;88.75;101090.88;6179194;23;49829;-71
2022/11/03 02:58:04;;;;;;;;;3.75;3.75;;;;;13.85;88.80;101096.19;6188631;23;49474;-70
2022/11/03 03:00:33;;;;;;;;;5.50;4.00;;;;;13.88;88.97;101082.13;6188886;23;55430;-72
2022/11/03 03:03:16;;;;;;;;;3.75;3.75;;;;;13.86;88.88;101075.97;6181497;23;49679;-85
2022/11/03 03:05:44;;;;;;;;;5.25;4.75;;;;;13.88;88.63;101076.84;6177423;23;49630;-79
2022/11/03 03:08:11;;;;;;;;;7.75;3.75;;;;;13.88;88.42;101063.66;6178570;23;49784;-72
2022/11/03 03:10:41;;;;;;;;;6.00;4.25;;;;;13.87;88.28;101061.91;6178467;23;51071;-77
2022/11/03 03:13:09;;;;;;;;;7.00;5.50;;;;;13.88;88.35;101043.44;6179891;23;49812;-80
2022/11/03 03:16:07;;;;;;;;;4.00;4.00;;;;;13.88;88.87;101040.78;6188853;23;49141;-78
2022/11/03 03:18:42;;;;;;;;;2.00;2.00;;;;;13.72;88.44;101000.16;6170340;23;49657;-78
2022/11/03 03:21:15;;;;;;;;;2.75;2.00;;;;;13.84;88.82;101023.16;6182970;23;50491;-87
2022/11/03 03:23:51;;;;;;;;;4.50;4.25;;;;;13.54;88.87;100976.19;6175410;23;49920;-72
2022/11/03 03:26:31;;;;;;;;;5.50;3.50;;;;;13.69;89.00;101001.88;6176627;23;49787;-72
2022/11/03 03:29:11;;;;;;;;;5.00;4.00;;;;;13.68;88.92;100997.47;6176818;23;49473;-71
2022/11/03 03:31:41;;;;;;;;;1.75;1.75;;;;;13.82;89.01;101010.84;6176381;23;49623;-76
2022/11/03 03:34:09;;;;;;;;;5.75;5.00;;;;;13.60;88.67;100970.97;6174736;23;49577;-74
2022/11/03 03:36:39;;;;;;;;;5.00;5.00;;;;;13.65;88.65;100971.94;6178008;23;49670;-72
2022/11/03 03:39:07;;;;;;;;;8.25;7.00;;;;;13.77;88.89;100996.69;6199035;22;49503;-71
2022/11/03 03:41:34;;;;;;;;;5.25;3.75;;;;;13.78;89.08;100991.41;6186395;23;49593;-71
2022/11/03 03:44:05;;;;;;;;;4.50;4.00;;;;;13.75;88.20;100986.13;6176226;23;49654;-71
2022/11/03 03:46:38;;;;;;;;;6.25;4.00;;;;;13.53;88.42;100960.38;6184398;23;49699;-71
2022/11/03 03:49:04;;;;;;;;;4.00;4.00;;;;;13.60;88.69;100962.19;6178644;23;49953;-70
2022/11/03 03:51:30;;;;;;;;;7.75;5.00;;;;;13.63;88.25;100968.41;6176341;22;50607;-72
2022/11/03 03:53:56;;;;;;;;;4.50;4.00;;;;;13.75;88.50;100989.63;6187916;23;49351;-71
2022/11/03 03:56:34;;;;;;;;;10.75;5.25;;;;;13.69;88.80;100980.75;6188394;22;49154;-71
2022/11/03 03:59:00;;;;;;;;;3.75;2.75;;;;;13.74;87.94;100990.50;6183635;23;49719;-76
2022/11/03 04:01:25;;;;;;;;;6.50;4.75;;;;;13.77;88.04;100980.84;6183586;22;49848;-79
2022/11/03 04:03:50;;;;;;;;;4.00;4.00;;;;;13.78;88.05;100987.91;6173885;23;49701;-71
2022/11/03 04:06:16;;;;;;;;;5.25;4.50;;;;;13.25;87.74;100887.94;6176807;23;49745;-71
2022/11/03 04:08:41;;;;;;;;;6.50;5.00;;;;;13.80;88.17;100983.50;6176857;22;49577;-72
2022/11/03 04:22:17;;;;;;;;;4.00;3.00;;;;;13.73;87.99;100967.63;6187626;23;49280;-71
2022/11/03 04:24:45;;;;;;;;;6.75;4.75;;;;;13.74;88.31;100965.88;6184131;23;50195;-73
2022/11/03 04:27:25;;;;;;;;;5.00;5.00;;;;;13.74;87.75;100950.06;6179599;23;49749;-70
2022/11/03 04:29:51;;;;;;;;;4.00;4.00;;;;;13.58;88.19;100924.38;6179658;23;49547;-74
2022/11/03 04:32:17;;;;;;;;;6.00;3.25;;;;;13.46;87.59;100915.44;6176349;23;50621;-75
2022/11/03 04:34:47;;;;;;;;;4.00;4.00;;;;;13.58;88.04;100919.97;6175835;23;49749;-71
2022/11/03 04:37:13;;;;;;;;;3.75;3.50;;;;;13.32;87.74;100861.69;6179318;23;49762;-71
2022/11/03 04:39:38;;;;;;;;;3.50;3.50;;;;;13.66;87.97;100926.22;6181968;23;49709;-70
2022/11/03 04:42:16;;;;;;;;;5.75;3.25;;;;;13.62;88.25;100918.28;6182390;22;49855;-79
2022/11/03 04:44:42;;;;;;;;;5.25;3.25;;;;;13.67;87.75;100924.47;6179374;23;49622;-87
2022/11/03 04:47:11;;;;;;;;;3.50;1.75;;;;;13.45;88.17;100881.16;6177526;23;49645;-74
2022/11/03 04:49:36;;;;;;;;;3.00;2.00;;;;;13.43;87.87;100874.97;6179181;23;49501;-80
2022/11/03 04:52:02;;;;;;;;;4.75;4.00;;;;;13.64;87.76;100903.34;6177643;23;49662;-81
2022/11/03 04:54:27;;;;;;;;;6.25;3.25;;;;;13.44;87.85;100863.56;6176725;23;49627;-73
2022/11/03 04:56:53;;;;;;;;;8.00;5.25;;;;;13.36;87.52;100852.94;6178281;23;49889;-73
2022/11/03 04:59:18;;;;;;;;;5.25;3.25;;;;;13.69;87.40;100901.63;6178598;22;49664;-78
2022/11/03 05:01:44;;;;;;;;;4.75;4.00;;;;;13.42;87.04;100850.38;6177581;22;50340;-75
2022/11/03 05:04:12;;;;;;;;;7.00;7.00;;;;;13.50;87.47;100871.53;6178261;23;49864;-80
2022/11/03 05:06:39;;;;;;;;;4.25;4.25;;;;;13.50;86.79;100855.69;6178687;23;49622;-83
2022/11/03 05:09:15;;;;;;;;;4.25;4.00;;;;;13.65;87.23;100876.97;6177573;23;49999;-79
2022/11/03 05:11:43;;;;;;;;;4.00;4.00;;;;;13.60;86.44;100861.94;6178125;23;50591;-71
2022/11/03 05:14:20;;;;;;;;;4.75;3.75;;;;;13.63;86.55;100869.91;6178760;23;49574;-81
2022/11/03 05:16:49;;;;;;;;;4.50;4.50;;;;;13.63;86.62;100867.28;6180448;22;49784;-78
2022/11/03 05:19:23;;;;;;;;;4.75;3.00;;;;;13.50;86.42;100841.63;6179122;23;50114;-72
2022/11/03 05:21:49;;;;;;;;;3.00;2.50;;;;;13.51;86.75;100827.56;6178128;23;51465;-75
2022/11/03 05:24:17;;;;;;;;;4.75;4.00;;;;;13.63;86.25;100839.16;6178820;23;49761;-80
2022/11/03 05:26:43;;;;;;;;;5.50;5.00;;;;;13.56;86.23;100818.84;6183040;23;49802;-74
2022/11/03 05:29:17;;;;;;;;;3.50;3.50;;;;;13.48;86.17;100802.06;6184750;23;49956;-76
2022/11/03 05:31:46;;;;;;;;;7.25;4.00;;;;;13.61;86.47;100814.50;6182981;23;50365;-80
2022/11/03 05:34:24;;;;;;;;;6.25;5.50;;;;;13.55;85.74;100805.66;6185057;23;49502;-72
2022/11/03 05:36:49;;;;;;;;;2.50;2.00;;;;;13.45;86.42;100786.22;6184691;23;49914;-72
2022/11/03 05:39:35;;;;;;;;;5.50;5.50;;;;;13.50;86.40;100783.59;6181932;23;50289;-75
2022/11/03 05:42:02;;;;;;;;;7.75;6.00;;;;;13.58;85.87;100795.13;6178356;23;50580;-71
2022/11/03 05:44:35;;;;;;;;;7.00;4.25;;;;;13.52;85.98;100781.91;6176313;23;49642;-71
2022/11/03 05:47:08;;;;;;;;;3.00;3.00;;;;;13.41;85.95;100750.13;6176535;23;49644;-74
2022/11/03 05:49:33;;;;;;;;;6.00;4.00;;;;;13.40;85.76;100737.81;6177072;23;50055;-71
2022/11/03 05:51:59;;;;;;;;;4.00;4.00;;;;;13.48;85.77;100754.59;6177084;23;49864;-88
2022/11/03 05:54:27;;;;;;;;;9.50;7.75;;;;;13.49;86.03;100745.81;6179261;23;49811;-72
2022/11/03 05:56:55;;;;;;;;;4.50;4.50;;;;;13.44;86.09;100750.16;6177989;23;49962;-71
2022/11/03 05:59:25;;;;;;;;;7.00;5.00;;;;;13.45;86.15;100757.22;6177613;23;49515;-81
2022/11/03 06:01:52;;;;;;;;;5.00;5.00;;;;;13.40;86.08;100729.91;6175101;23;50852;-85
2022/11/03 06:04:18;;;;;;;;;3.25;3.00;;;;;13.51;85.99;100749.38;6176351;23;49864;-74
2022/11/03 06:06:53;;;;;;;;;7.00;7.00;;;;;13.39;85.76;100731.66;6178100;22;49879;-71
2022/11/03 06:09:22;;;;;;;;;3.75;3.75;;;;;13.42;86.16;100736.09;6175738;23;49671;-84
2022/11/03 06:11:50;;;;;;;;;7.25;6.25;;;;;13.52;85.90;100745.84;6175894;22;50693;-76
2022/11/03 06:14:21;;;;;;;;;10.25;7.75;;;;;13.48;85.36;100733.50;6175574;23;49662;-76
2022/11/03 06:16:48;;;;;;;;;5.75;4.75;;;;;13.28;85.60;100698.16;6176298;23;49852;-73
2022/11/03 06:19:38;;;;;;;;;5.50;4.00;;;;;13.49;86.06;100734.38;6176009;23;49653;-75
2022/11/03 06:22:27;;;;;;;;;6.75;4.25;;;;;13.34;85.65;100700.88;6175048;22;49635;-72
2022/11/03 06:24:59;;;;;;;;;5.25;4.00;;;;;13.31;86.01;100698.19;6174938;23;49929;-72
2022/11/03 06:27:29;;;;;;;;;5.75;4.75;;;;;13.45;86.19;100715.00;6173610;23;49741;-72
2022/11/03 06:30:01;;;;;;;;;11.00;6.50;;;;;13.39;85.73;100684.19;6174379;23;49855;-71
2022/11/03 06:32:28;;;;;;;;;4.00;4.00;;;;;13.37;85.45;100671.88;6174483;23;49734;-79
2022/11/03 06:34:56;;;;;;;;;7.00;5.50;;;;;13.48;85.59;100682.50;6175094;22;49958;-72
2022/11/03 06:37:33;;;;;;;;;5.00;3.50;;;;;13.31;85.67;100680.59;6174244;23;49700;-71
2022/11/03 06:40:23;;;;;;;;;4.50;3.50;;;;;13.11;86.17;100625.06;6174709;23;49921;-71
2022/11/03 06:42:48;;;;;;;;;4.50;4.50;;;;;13.45;86.00;100673.72;6173508;23;50554;-71
2022/11/03 06:45:22;;;;;;;;;4.00;3.00;;;;;13.41;86.07;100666.66;6173475;23;49796;-71
2022/11/03 06:47:48;;;;;;;;;7.25;7.25;;;;;13.49;85.90;100663.16;6173598;23;49817;-71
2022/11/03 06:50:26;;;;;;;;;5.25;5.25;;;;;13.48;85.73;100674.59;6175418;23;49648;-71
2022/11/03 06:52:53;;;;;;;;;4.00;4.00;;;;;13.48;85.33;100677.22;6174028;23;50238;-72
2022/11/03 06:55:29;;;;;;;;;7.50;6.25;;;;;13.39;85.41;100636.72;6174053;23;49583;-72
2022/11/03 06:58:03;;;;;;;;;4.00;4.00;;;;;13.54;85.15;100661.47;6174100;23;49819;-71
2022/11/03 07:00:30;;;;;;;;;6.50;5.50;;;;;13.33;84.94;100630.56;6172297;23;49612;-70
2022/11/03 07:03:01;;;;;;;;;8.25;5.50;;;;;13.50;85.18;100652.63;6173656;23;50772;-80
2022/11/03 07:05:29;;;;;;;;;6.50;5.50;;;;;13.34;84.90;100609.47;6163615;23;50189;-73
2022/11/03 07:07:57;;;;;;;;;6.00;4.50;;;;;13.51;84.77;100638.59;6168061;22;50398;-73
2022/11/03 07:10:25;;;;;;;;;5.75;5.25;;;;;13.46;85.11;100620.09;6174273;23;49768;-73
2022/11/03 07:12:52;;;;;;;;;4.00;4.00;;;;;13.53;84.77;100628.94;6175324;23;49774;-74
2022/11/03 07:15:32;;;;;;;;;5.25;4.00;;;;;13.32;84.77;100589.25;6175508;23;49938;-75
2022/11/03 07:17:58;;;;;;;;;6.00;4.75;;;;;12.96;84.85;100511.63;6176263;23;49772;-74
2022/11/03 07:20:23;;;;;;;;;5.25;4.25;;;;;13.54;84.66;100611.34;6176782;23;49798;-77
2022/11/03 07:22:51;;;;;;;;;6.25;5.00;;;;;13.44;84.83;100608.66;6177975;22;49927;-73
2022/11/03 07:25:19;;;;;;;;;7.75;4.00;;;;;13.12;84.81;100546.88;6175556;23;49521;-73
2022/11/03 07:27:52;;;;;;;;;6.00;4.00;;;;;13.51;84.76;100591.13;6176848;23;49773;-73
2022/11/03 07:30:18;;;;;;;;;3.25;3.25;;;;;13.61;84.39;100587.66;6176397;23;49927;-73
2022/11/03 07:32:43;;;;;;;;;5.00;5.00;;;;;13.55;84.15;100586.75;6175899;23;49875;-79
2022/11/03 07:35:28;;;;;;;;;5.25;5.25;;;;;13.38;83.50;100545.31;6177504;23;49608;-76
2022/11/03 07:37:54;;;;;;;;;5.00;4.75;;;;;13.68;83.38;100586.81;6175401;23;49746;-72
2022/11/03 07:40:26;;;;;;;;;8.75;6.75;;;;;13.71;83.16;100586.84;6176384;23;49879;-72
2022/11/03 07:42:56;;;;;;;;;3.00;3.00;;;;;13.74;82.57;100583.34;6176333;23;49659;-71
2022/11/03 07:45:36;;;;;;;;;4.00;3.00;;;;;13.66;82.50;100570.09;6175628;23;49892;-73
2022/11/03 07:48:17;;;;;;;;;4.00;4.00;;;;;13.68;82.61;100573.63;6199253;22;49926;-72
2022/11/03 07:50:43;;;;;;;;;6.75;6.25;;;;;13.88;82.50;100576.34;6175281;23;49594;-71
2022/11/03 07:53:17;;;;;;;;;6.25;5.25;;;;;13.92;81.82;100580.78;6175202;23;50601;-80
2022/11/03 07:55:47;;;;;;;;;5.75;3.75;;;;;13.62;81.60;100509.41;6174879;23;49658;-81
2022/11/03 07:58:27;;;;;;;;;7.00;5.00;;;;;13.97;81.19;100557.03;6173170;23;49530;-70
2022/11/03 08:00:57;;;;;;;;;4.00;4.00;;;;;14.07;80.67;100576.44;6175636;23;49721;-71
2022/11/03 08:03:43;;;;;;;;;6.75;5.75;;;;;14.12;80.29;100566.78;6176666;23;49690;-73
2022/11/03 08:06:09;;;;;;;;;3.00;3.00;;;;;13.77;80.51;100498.91;6177090;23;49844;-70
2022/11/03 08:08:34;;;;;;;;;3.75;3.75;;;;;14.07;79.72;100539.47;6175841;22;49779;-80
2022/11/03 08:10:59;;;;;;;;;5.50;5.00;;;;;14.14;79.43;100539.50;6175715;22;49886;-71
2022/11/03 08:13:25;;;;;;;;;5.00;5.00;;;;;14.02;79.62;100502.53;6174971;23;50563;-76
2022/11/03 08:15:50;;;;;;;;;6.00;3.75;;;;;14.36;79.24;100556.25;6174525;23;58677;-73
2022/11/03 08:18:15;;;;;;;;;4.75;4.00;;;;;14.42;79.29;100551.00;6174828;22;49890;-70
2022/11/03 08:20:40;;;;;;;;;7.00;5.00;;;;;14.49;78.17;100549.31;6175956;23;49867;-78
2022/11/03 08:23:06;;;;;;;;;5.00;4.00;;;;;14.49;77.57;100525.53;6174601;22;58389;-71
2022/11/03 08:25:31;;;;;;;;;5.75;5.75;;;;;14.61;77.82;100525.53;6174386;23;58342;-70
2022/11/03 08:27:56;;;;;;;;;4.00;4.00;;;;;14.60;77.39;100529.06;6174893;23;49745;-73
2022/11/03 08:30:22;;;;;;;;;8.00;6.00;;;;;14.65;77.32;100526.41;6175692;22;49684;-79
2022/11/03 08:32:47;;;;;;;;;4.00;2.75;;;;;14.66;77.13;100523.75;6174691;23;62181;-70
2022/11/03 08:35:12;;;;;;;;;5.00;5.00;;;;;14.72;76.56;100512.31;6174806;23;58636;-73
2022/11/03 08:37:38;;;;;;;;;6.25;4.75;;;;;14.80;76.40;100511.44;6175148;23;49735;-71
2022/11/03 08:40:03;;;;;;;;;4.75;4.75;;;;;14.75;76.24;100492.06;6175535;22;49485;-74
2022/11/03 08:42:29;;;;;;;;;3.00;3.00;;;;;14.81;76.00;100500.00;6175597;23;49699;-80
2022/11/03 08:44:54;;;;;;;;;5.00;5.00;;;;;14.95;74.99;100512.28;6176245;23;49527;-74
2022/11/03 08:47:20;;;;;;;;;3.25;3.25;;;;;14.95;75.06;100518.47;6175447;23;49812;-80
2022/11/03 08:49:45;;;;;;;;;7.00;6.00;;;;;15.00;75.29;100498.22;6175592;22;50075;-75
2022/11/03 08:52:11;;;;;;;;;5.50;4.75;;;;;15.03;74.67;100484.09;6174920;23;50761;-74
2022/11/03 08:54:36;;;;;;;;;3.50;3.50;;;;;15.00;74.50;100460.31;6174739;23;49769;-74
2022/11/03 08:57:01;;;;;;;;;6.25;5.25;;;;;14.68;73.95;100395.19;6198669;22;49637;-79
2022/11/03 08:59:27;;;;;;;;;5.00;5.00;;;;;13.77;74.06;100258.84;6178655;22;49572;-73
2022/11/03 09:01:52;;;;;;;;;5.00;5.00;;;;;14.68;73.77;100386.41;6175752;22;49636;-72
2022/11/03 09:04:17;;;;;;;;;5.75;5.75;;;;;14.77;73.85;100410.16;6174858;22;49635;-71
2022/11/03 09:06:43;;;;;;;;;7.00;5.00;;;;;15.05;73.49;100438.25;6174923;22;49634;-71
2022/11/03 09:09:08;;;;;;;;;6.50;5.50;;;;;15.01;73.84;100436.53;6174738;23;49875;-74
2022/11/03 09:11:33;;;;;;;;;6.50;5.00;;;;;15.06;73.36;100447.09;6173918;23;51100;-70
2022/11/03 09:13:59;;;;;;;;;7.75;5.00;;;;;14.86;73.64;100404.81;6175206;23;49623;-70
2022/11/03 09:16:24;;;;;;;;;5.50;5.00;;;;;14.63;73.17;100365.25;6174937;22;49845;-76
2022/11/03 09:18:49;;;;;;;;;5.50;5.50;;;;;14.98;73.38;100430.38;6175766;23;49634;-74
2022/11/03 09:21:15;;;;;;;;;6.50;6.50;;;;;14.88;74.04;100401.31;6174947;22;50403;-70
2022/11/03 09:23:40;;;;;;;;;4.75;4.75;;;;;14.67;74.53;100361.75;6174256;23;49714;-70
2022/11/03 09:26:05;;;;;;;;;5.00;4.00;;;;;14.86;73.79;100388.97;6174605;22;49826;-69
2022/11/03 09:28:31;;;;;;;;;5.75;4.00;;;;;14.85;73.44;100369.59;6182351;23;50128;-69
2022/11/03 09:30:57;;;;;;;;;5.00;5.00;;;;;14.52;73.84;100320.38;6184302;23;50298;-73
2022/11/03 09:33:22;;;;;;;;;4.00;4.00;;;;;15.03;73.55;100389.81;6182068;23;49764;-70
2022/11/03 09:35:48;;;;;;;;;3.50;3.50;;;;;15.12;73.76;100391.53;6183807;23;55700;-67
2022/11/03 09:38:13;;;;;;;;;4.75;4.75;;;;;15.15;73.08;100384.50;6186123;23;49554;-72
2022/11/03 09:40:38;;;;;;;;;7.00;4.50;;;;;14.97;72.75;100360.78;6182693;23;70421;-70
2022/11/03 09:43:04;;;;;;;;;5.25;5.00;;;;;15.06;72.72;100359.88;6184883;23;49303;-69
2022/11/03 09:45:30;;;;;;;;;4.75;4.75;;;;;15.14;72.74;100356.28;6185061;23;49523;-73
2022/11/03 09:47:55;;;;;;;;;6.00;5.00;;;;;15.05;72.79;100350.16;6185660;23;49433;-66
2022/11/03 09:50:21;;;;;;;;;6.00;5.25;;;;;15.07;72.64;100321.97;6182232;23;49974;-70
2022/11/03 09:52:50;;;;;;;;;4.50;4.50;;;;;15.32;72.17;100371.19;6184877;23;49273;-71
2022/11/03 09:55:24;;;;;;;;;4.00;4.00;;;;;15.27;72.16;100349.19;6183939;23;49897;-67
2022/11/03 09:57:56;;;;;;;;;5.00;4.50;;;;;15.42;71.57;100359.66;6180227;23;49532;-67
2022/11/03 10:00:23;;;;;;;;;4.50;3.50;;;;;15.53;71.55;100358.72;6175905;23;49756;-68
2022/11/03 10:02:49;;;;;;;;;2.00;2.00;;;;;15.51;71.18;100320.81;6173118;22;49555;-68
2022/11/03 10:05:33;;;;;;;;;6.00;4.50;;;;;15.68;70.94;100324.28;6174857;23;49697;-67
2022/11/03 10:08:02;;;;;;;;;5.50;5.50;;;;;15.71;70.61;100305.72;6175749;23;49563;-68
2022/11/03 10:10:28;;;;;;;;;6.00;6.00;;;;;16.06;70.41;100344.28;6173432;23;50668;-68
2022/11/03 10:12:54;;;;;;;;;5.25;4.25;;;;;16.20;69.90;100339.75;6174972;23;49655;-67
2022/11/03 10:15:21;;;;;;;;;5.50;5.50;;;;;16.27;68.92;100338.81;6174467;23;49650;-67
2022/11/03 10:17:49;;;;;;;;;6.25;5.00;;;;;16.25;68.81;100314.09;6174811;23;49837;-67
2022/11/03 10:20:17;;;;;;;;;4.00;4.00;;;;;16.28;67.91;100308.78;6174216;23;50695;-68
2022/11/03 10:22:45;;;;;;;;;4.00;4.00;;;;;16.40;67.99;100306.00;6172604;23;49684;-68
2022/11/03 10:25:37;;;;;;;;;3.00;3.00;;;;;16.46;67.50;100307.72;6173954;23;49729;-69
2022/11/03 10:28:14;;;;;;;;;6.25;6.00;;;;;16.55;67.48;100313.78;6176033;23;49636;-68
2022/11/03 10:30:54;;;;;;;;;4.75;4.00;;;;;16.61;66.93;100307.56;6173924;23;50243;-67
2022/11/03 10:33:24;;;;;;;;;4.00;4.00;;;;;16.61;66.51;100310.22;6174492;23;49584;-68
2022/11/03 10:35:49;;;;;;;;;5.25;4.25;;;;;16.58;66.87;100296.97;6176516;23;49611;-70
2022/11/03 10:38:26;;;;;;;;;4.50;2.00;;;;;16.70;66.84;100301.31;6178143;22;50023;-69
2022/11/03 10:40:52;;;;;;;;;3.75;3.00;;;;;16.56;65.85;100272.28;6176968;23;49845;-70
2022/11/03 10:43:17;;;;;;;;;5.50;5.50;;;;;16.43;66.17;100249.47;6175185;23;49864;-69
2022/11/03 10:45:43;;;;;;;;;3.00;3.00;;;;;16.75;66.09;100280.91;6173870;23;49704;-68
2022/11/03 10:48:10;;;;;;;;;4.00;4.00;;;;;16.72;66.39;100273.00;6175524;23;49500;-71
2022/11/03 10:50:39;;;;;;;;;4.75;4.75;;;;;16.55;65.85;100246.69;6176446;23;50502;-64
2022/11/03 10:53:04;;;;;;;;;5.50;5.50;;;;;16.72;65.70;100273.00;6177221;22;49529;-65
2022/11/03 10:55:30;;;;;;;;;3.00;3.00;;;;;16.77;65.66;100276.47;6174693;22;49552;-65
2022/11/03 10:57:57;;;;;;;;;3.50;3.00;;;;;16.81;65.85;100280.84;6174485;23;49869;-65
2022/11/03 11:00:23;;;;;;;;;4.00;4.00;;;;;16.88;65.86;100279.88;6175441;23;49886;-65
2022/11/03 11:02:55;;;;;;;;;7.25;6.25;;;;;16.81;65.70;100260.53;6175724;23;49881;-65
2022/11/03 11:05:22;;;;;;;;;5.25;3.00;;;;;16.84;65.64;100249.88;6176160;23;49849;-66
2022/11/03 11:07:52;;;;;;;;;3.50;3.50;;;;;16.73;65.07;100241.19;6178748;23;49745;-68
2022/11/03 11:10:21;;;;;;;;;2.75;2.00;;;;;16.90;65.41;100258.66;6175316;23;50755;-68
2022/11/03 11:13:03;;;;;;;;;6.00;3.00;;;;;16.86;65.34;100257.81;6175219;23;49773;-65
2022/11/03 11:15:41;;;;;;;;;3.00;3.00;;;;;16.56;65.47;100196.31;6173843;23;49698;-71
2022/11/03 11:18:07;;;;;;;;;7.00;3.00;;;;;16.72;65.37;100209.41;6175291;23;49962;-66
2022/11/03 11:20:35;;;;;;;;;3.00;2.00;;;;;16.95;65.33;100228.53;6176525;23;50247;-66
2022/11/03 11:23:25;;;;;;;;;3.50;3.00;;;;;16.87;66.18;100235.69;6174531;23;49591;-65
2022/11/03 11:26:09;;;;;;;;;4.00;4.00;;;;;16.82;66.90;100209.25;6174359;23;49692;-65
2022/11/03 11:28:36;;;;;;;;;4.00;4.00;;;;;16.87;67.58;100222.44;6176298;23;49603;-66
2022/11/03 11:31:31;;;;;;;;;2.00;2.00;;;;;16.78;68.08;100217.25;6175075;23;50332;-66
2022/11/03 11:34:09;;;;;;;;;4.00;3.00;;;;;16.74;68.30;100242.94;6174905;23;49650;-66
2022/11/03 11:37:04;;;;;;;;;2.50;2.50;;;;;16.67;68.88;100250.94;6174737;23;49661;-66
2022/11/03 11:39:30;;;;;;;;;3.50;3.50;;;;;16.62;69.76;100232.47;6175152;23;49610;-67
2022/11/03 11:42:19;;;;;;;;;5.00;5.00;;;;;16.65;70.86;100231.53;6173560;23;49727;-66
2022/11/03 11:45:00;;;;;;;;;5.25;4.00;;;;;16.67;71.54;100221.78;6173732;23;49571;-66
2022/11/03 11:47:30;;;;;;;;;6.00;6.00;;;;;16.61;73.08;100222.75;6174325;23;50158;-66
2022/11/03 11:50:11;;;;;;;;;4.00;4.00;;;;;16.56;73.55;100203.38;6175917;23;49508;-66
2022/11/03 11:52:40;;;;;;;;;5.50;5.25;;;;;16.53;73.35;100206.06;6177778;23;49582;-65
2022/11/03 11:55:16;;;;;;;;;1.00;1.00;;;;;16.44;74.59;100193.81;6174851;23;49547;-66